Hurt, Virginia
Current Conditions -  °F | °C
As of 8:35 PM on Thursday 27 Nov 2014 (Local Time) from K0V4 Reporting Station
Overcast Overcast  
Wind Chill: 34°   Ceiling: 5000
Heat Index: 38°   Visibility: 10mi
Dew Point: 26°   Wind: 6mph
Humidity: 61%   Direction: 270°W
Pressure: 30.23"   Gusts: NA
Location:  37.09°N, 79.3°W
Report Text: K0V4 280135Z AUTO 27005KT 10SM OVC050 04/M03 A3023 RMK AO1 T00361034
Loading
Personal Weather Stations






























Interactive Weather Map New forecast layout! Learn more

10-Day Weather Forecast

Advertisements
Track Severe Weather on mobile